Terminal Aerodrome Forecast
Issued by NWS

Home | Current Version | Previous Version | Text Only | Print | Product List | Glossary On
Versions: 1 2 3 4 5 6 7 8 9 10 11 12 13 14 15 16 17 18 19 20 21 22 23 24 25 26 27 28 29 30 31 32 33 34
000
FTUS43 KSGF 280520
TAFJLN
TAF
KJLN 280520Z 2806/2906 11007KT P6SM VCSH OVC090 WS020/16040KT
     FM281500 18012G20KT P6SM BKN025 OVC120
     FM282100 19008KT P6SM OVC025
     FM290300 07004KT P6SM VCSH BKN025 OVC050=

USA.gov is the U.S. government's official web portal to all federal, state and local government web resources and services.